createdAt,value
2019-03-25T00:01:17.854Z,10.53
2019-03-25T00:03:46.202Z,11.57
2019-03-25T00:06:14.421Z,9.93
2019-03-25T00:08:42.414Z,10.80
2019-03-25T00:11:10.565Z,11.10
2019-03-25T00:13:38.639Z,10.40
2019-03-25T00:16:06.850Z,11.70
2019-03-25T00:18:34.830Z,11.20
2019-03-25T00:21:02.883Z,11.27
2019-03-25T00:23:30.865Z,10.90
2019-03-25T00:25:58.822Z,10.17
2019-03-25T00:28:26.880Z,10.80
2019-03-25T00:30:55.059Z,10.50
2019-03-25T00:33:23.148Z,10.47
2019-03-25T00:35:51.074Z,9.37
2019-03-25T00:38:19.069Z,10.07
2019-03-25T00:40:47.080Z,9.47
2019-03-25T00:43:15.065Z,9.57
2019-03-25T00:45:43.062Z,10.13
2019-03-25T00:48:10.985Z,9.43
2019-03-25T00:50:38.977Z,11.13
2019-03-25T00:53:07.026Z,10.47
2019-03-25T00:55:35.014Z,10.37
2019-03-25T00:58:03.054Z,11.37
2019-03-25T01:00:30.993Z,11.57
2019-03-25T01:02:58.990Z,11.87
2019-03-25T01:05:26.992Z,11.60
2019-03-25T01:07:54.987Z,10.57
2019-03-25T01:10:23.090Z,11.53
2019-03-25T01:12:51.118Z,10.47
2019-03-25T01:15:19.107Z,9.37
2019-03-25T01:17:47.113Z,10.97
2019-03-25T01:20:15.311Z,10.33
2019-03-25T01:22:43.421Z,10.33
2019-03-25T01:25:11.325Z,10.03
2019-03-25T01:27:39.309Z,11.17
2019-03-25T01:30:07.707Z,9.43
2019-03-25T01:32:35.752Z,9.17
2019-03-25T01:35:03.994Z,9.37
2019-03-25T01:37:31.991Z,9.80
2019-03-25T01:39:59.956Z,10.07
2019-03-25T01:42:28.014Z,10.00
2019-03-25T01:44:56.046Z,10.33
2019-03-25T01:47:24.014Z,10.00
2019-03-25T01:49:52.047Z,10.97
2019-03-25T01:52:20.101Z,11.23
2019-03-25T01:54:48.081Z,11.37
2019-03-25T01:57:16.086Z,12.60
2019-03-25T01:59:44.078Z,13.43
2019-03-25T02:02:12.095Z,13.10
2019-03-25T02:04:40.134Z,14.30
2019-03-25T02:07:08.151Z,14.10
2019-03-25T02:09:36.102Z,13.27
2019-03-25T02:12:04.227Z,13.20
2019-03-25T02:14:32.264Z,13.80
2019-03-25T02:17:00.265Z,13.63
2019-03-25T02:19:28.176Z,13.03
2019-03-25T02:21:56.166Z,13.87
2019-03-25T02:24:24.148Z,14.43
2019-03-25T02:26:52.079Z,14.10
2019-03-25T02:29:20.081Z,14.17
2019-03-25T02:31:48.110Z,14.23
2019-03-25T02:34:16.201Z,13.70
2019-03-25T02:36:44.213Z,14.77
2019-03-25T02:39:12.153Z,15.53
2019-03-25T02:41:40.132Z,15.30
2019-03-25T02:44:08.157Z,17.10
2019-03-25T02:46:36.187Z,16.03
2019-03-25T02:49:04.318Z,15.80
2019-03-25T02:51:32.291Z,15.90
2019-03-25T02:54:00.269Z,16.67
2019-03-25T02:56:28.285Z,16.60
2019-03-25T02:58:56.282Z,15.93
2019-03-25T03:01:24.252Z,16.47
2019-03-25T03:03:52.262Z,16.43
2019-03-25T03:06:20.248Z,17.03
2019-03-25T03:08:48.189Z,15.67
2019-03-25T03:11:16.172Z,17.03
2019-03-25T03:13:44.181Z,9.57
2019-03-25T03:16:12.250Z,16.57
2019-03-25T03:18:40.265Z,16.90
2019-03-25T03:21:08.227Z,11.30
2019-03-25T03:23:36.254Z,8.33
2019-03-25T03:26:04.479Z,9.17
2019-03-25T03:28:32.477Z,8.40
2019-03-25T03:31:00.595Z,8.50
2019-03-25T03:33:28.538Z,8.73
2019-03-25T03:35:56.737Z,9.43
2019-03-25T03:38:24.805Z,7.97
2019-03-25T03:40:52.838Z,9.40
2019-03-25T03:43:21.073Z,10.07
2019-03-25T03:45:49.093Z,9.83
2019-03-25T03:48:17.063Z,11.63
2019-03-25T03:50:45.137Z,12.73
2019-03-25T03:53:13.259Z,13.00
2019-03-25T03:55:41.280Z,12.87
2019-03-25T03:58:09.302Z,10.87
2019-03-25T04:00:37.384Z,13.77
2019-03-25T04:03:05.515Z,13.83
2019-03-25T04:05:33.562Z,14.87
2019-03-25T04:08:03.662Z,15.10
2019-03-25T04:10:40.484Z,13.93
2019-03-25T04:13:08.662Z,15.60
2019-03-25T04:15:36.722Z,15.37
2019-03-25T04:18:04.797Z,14.50
2019-03-25T04:20:32.879Z,15.33
2019-03-25T04:23:01.076Z,16.80
2019-03-25T04:25:29.130Z,13.60
2019-03-25T04:27:57.228Z,15.57
2019-03-25T04:30:25.478Z,16.30
2019-03-25T04:32:53.544Z,18.20
2019-03-25T04:35:23.869Z,16.93
2019-03-25T04:37:51.793Z,18.13
2019-03-25T04:40:19.934Z,18.20
2019-03-25T04:42:48.071Z,16.60
2019-03-25T04:45:16.475Z,15.63
2019-03-25T04:47:44.658Z,16.37
2019-03-25T04:50:12.919Z,15.57
2019-03-25T04:52:41.011Z,16.33
2019-03-25T04:55:09.594Z,18.17
2019-03-25T04:57:37.903Z,17.93
2019-03-25T05:00:07.575Z,18.97
2019-03-25T05:02:35.596Z,18.00
2019-03-25T05:05:03.855Z,22.87
2019-03-25T05:07:33.173Z,24.77
2019-03-25T05:10:01.238Z,26.00
2019-03-25T05:12:29.426Z,16.13
2019-03-25T05:14:57.491Z,21.73
2019-03-25T05:17:25.530Z,22.40
2019-03-25T05:19:53.592Z,23.80
2019-03-25T05:22:21.668Z,16.90
2019-03-25T05:24:49.769Z,19.67
2019-03-25T05:27:19.602Z,17.10
2019-03-25T05:29:48.294Z,20.63
2019-03-25T05:32:16.470Z,22.17
2019-03-25T05:34:44.596Z,20.93
2019-03-25T05:37:12.749Z,19.53
2019-03-25T05:39:40.852Z,14.20
2019-03-25T05:42:09.656Z,21.03
2019-03-25T05:44:37.761Z,23.63
2019-03-25T05:47:05.935Z,15.93
2019-03-25T05:49:33.992Z,22.73
2019-03-25T05:52:01.921Z,21.70
2019-03-25T05:54:29.991Z,24.30
2019-03-25T05:57:02.878Z,23.03
2019-03-25T05:59:27.997Z,23.03
2019-03-25T06:01:56.019Z,21.37
2019-03-25T06:04:24.073Z,24.67
2019-03-25T06:06:52.306Z,26.83
2019-03-25T06:09:20.464Z,26.83
2019-03-25T06:11:48.493Z,29.93
2019-03-25T06:14:16.570Z,30.23
2019-03-25T06:16:44.616Z,33.77
2019-03-25T06:19:12.820Z,34.20
2019-03-25T06:21:40.819Z,27.10
2019-03-25T06:24:08.881Z,27.43
2019-03-25T06:26:36.920Z,22.67
2019-03-25T06:29:05.021Z,23.93
2019-03-25T06:31:33.010Z,22.97
2019-03-25T06:34:01.031Z,21.47
2019-03-25T06:36:29.063Z,25.53
2019-03-25T06:38:57.158Z,24.27
2019-03-25T06:41:25.453Z,22.70
2019-03-25T06:43:54.601Z,21.10
2019-03-25T06:46:22.653Z,21.17
2019-03-25T06:48:50.811Z,16.23
2019-03-25T06:51:19.002Z,23.40
2019-03-25T06:53:52.441Z,21.30
2019-03-25T06:56:20.565Z,21.43
2019-03-25T06:58:48.648Z,20.30
2019-03-25T07:01:16.690Z,18.50
2019-03-25T07:03:44.783Z,18.77
2019-03-25T07:06:12.760Z,17.30
2019-03-25T07:08:40.929Z,18.20
2019-03-25T07:11:09.859Z,18.80
2019-03-25T07:13:37.893Z,18.57
2019-03-25T07:16:05.953Z,16.90
2019-03-25T07:18:33.964Z,18.63
2019-03-25T07:21:02.033Z,18.40
2019-03-25T07:23:30.181Z,17.10
2019-03-25T07:25:58.269Z,15.17
2019-03-25T07:28:26.324Z,17.30
2019-03-25T07:30:54.368Z,16.53
2019-03-25T07:33:22.742Z,14.67
2019-03-25T07:35:50.733Z,15.07
2019-03-25T07:38:18.831Z,13.37
2019-03-25T07:40:46.966Z,15.00
2019-03-25T07:43:15.186Z,15.90
2019-03-25T07:45:44.388Z,14.70
2019-03-25T07:48:12.456Z,15.83
2019-03-25T07:50:40.477Z,17.23
2019-03-25T07:53:08.586Z,15.60
2019-03-25T07:55:36.697Z,16.07
2019-03-25T07:58:04.819Z,15.67
2019-03-25T08:00:34.371Z,15.67
2019-03-25T08:03:02.648Z,14.33
2019-03-25T08:05:30.697Z,15.80
2019-03-25T08:07:59.217Z,13.80
2019-03-25T08:10:32.545Z,15.63
2019-03-25T08:13:00.708Z,15.33
2019-03-25T08:15:28.939Z,14.97
2019-03-25T08:17:56.955Z,14.40
2019-03-25T08:20:24.892Z,13.50
2019-03-25T08:22:52.952Z,13.97
2019-03-25T08:25:20.976Z,15.47
2019-03-25T08:27:59.381Z,15.20
2019-03-25T08:30:19.128Z,14.83
2019-03-25T08:32:47.333Z,14.20
2019-03-25T08:35:15.396Z,15.63
2019-03-25T08:37:43.457Z,15.20
2019-03-25T08:40:11.872Z,14.13
2019-03-25T08:42:40.166Z,14.77
2019-03-25T08:45:08.957Z,14.53
2019-03-25T08:47:36.962Z,14.20
2019-03-25T08:50:08.896Z,14.07
2019-03-25T08:52:36.961Z,13.30
2019-03-25T08:55:05.247Z,12.63
2019-03-25T08:57:33.357Z,12.40
2019-03-25T09:00:01.512Z,13.70
2019-03-25T09:02:29.543Z,14.57
2019-03-25T09:04:57.501Z,22.47
2019-03-25T09:07:25.518Z,15.17
2019-03-25T09:09:53.534Z,16.40
2019-03-25T09:12:21.582Z,15.73
2019-03-25T09:14:49.681Z,12.60
2019-03-25T09:17:17.732Z,16.43
2019-03-25T09:19:45.657Z,13.07
2019-03-25T09:22:13.797Z,12.40
2019-03-25T09:24:41.885Z,13.20
2019-03-25T09:27:10.059Z,11.57
2019-03-25T09:29:38.158Z,10.57
2019-03-25T09:32:06.370Z,13.00
2019-03-25T09:34:34.579Z,10.80
2019-03-25T09:37:02.673Z,12.90
2019-03-25T09:39:30.762Z,13.00
2019-03-25T09:41:59.295Z,11.13
2019-03-25T09:44:27.425Z,12.23
2019-03-25T09:46:55.781Z,12.00
2019-03-25T09:49:23.931Z,11.60
2019-03-25T09:51:52.977Z,11.77
2019-03-25T09:54:21.350Z,10.13
2019-03-25T09:56:49.424Z,10.30
2019-03-25T09:59:17.448Z,12.40
2019-03-25T10:01:45.896Z,12.07
2019-03-25T10:04:13.941Z,13.17
2019-03-25T10:06:44.099Z,11.93
2019-03-25T10:09:12.322Z,12.87
2019-03-25T10:11:40.391Z,12.27
2019-03-25T10:14:08.634Z,13.47
2019-03-25T10:16:37.195Z,12.73
2019-03-25T10:19:05.374Z,12.20
2019-03-25T10:21:33.916Z,13.83
2019-03-25T10:24:02.061Z,14.03
2019-03-25T10:26:30.230Z,13.03
2019-03-25T10:28:58.377Z,13.30
2019-03-25T10:31:26.690Z,12.60
2019-03-25T10:33:54.777Z,12.37
2019-03-25T10:36:22.982Z,12.83
2019-03-25T10:38:51.258Z,12.60
2019-03-25T10:41:19.412Z,12.77
2019-03-25T10:43:47.439Z,12.33
2019-03-25T10:46:15.688Z,13.17
2019-03-25T10:48:43.841Z,14.10
2019-03-25T10:51:11.993Z,11.10
2019-03-25T10:53:40.337Z,10.53
2019-03-25T10:56:08.607Z,10.43
2019-03-25T10:58:36.602Z,11.03
2019-03-25T11:01:05.370Z,10.43
2019-03-25T11:03:33.459Z,11.03
2019-03-25T11:06:01.446Z,11.30
2019-03-25T11:08:29.705Z,10.53
2019-03-25T11:10:58.204Z,10.63
2019-03-25T11:13:26.346Z,11.40
2019-03-25T11:15:54.431Z,11.20
2019-03-25T11:18:22.581Z,12.13
2019-03-25T11:20:50.865Z,10.23
2019-03-25T11:23:19.106Z,10.90
2019-03-25T11:25:47.775Z,11.53
2019-03-25T11:28:15.811Z,9.77
2019-03-25T11:30:51.846Z,10.57
2019-03-25T11:33:20.632Z,10.63
2019-03-25T11:35:48.794Z,10.90
2019-03-25T11:38:16.811Z,12.33
2019-03-25T11:40:44.970Z,9.43
2019-03-25T11:43:13.135Z,10.90
2019-03-25T11:45:41.244Z,10.47
2019-03-25T11:48:09.356Z,10.27
2019-03-25T11:50:37.358Z,9.73
2019-03-25T11:53:05.423Z,11.83
2019-03-25T11:55:33.878Z,10.87
2019-03-25T11:58:01.932Z,10.00
2019-03-25T12:00:30.415Z,10.50
2019-03-25T12:02:58.600Z,10.03
2019-03-25T12:05:26.663Z,11.33
2019-03-25T12:07:54.743Z,10.90
2019-03-25T12:10:23.094Z,10.00
2019-03-25T12:12:51.088Z,10.43
2019-03-25T12:15:19.112Z,10.13
2019-03-25T12:17:47.398Z,10.83
2019-03-25T12:20:15.560Z,10.03
2019-03-25T12:22:43.776Z,10.07
2019-03-25T12:25:11.928Z,10.00
2019-03-25T12:27:40.640Z,9.53
2019-03-25T12:30:09.460Z,9.60
2019-03-25T12:32:37.555Z,9.90
2019-03-25T12:35:06.357Z,9.73
2019-03-25T12:37:34.348Z,9.57
2019-03-25T12:40:02.454Z,9.93
2019-03-25T12:42:30.622Z,10.00
2019-03-25T12:44:58.841Z,10.53
2019-03-25T12:47:27.134Z,9.20
2019-03-25T12:49:56.443Z,9.63
2019-03-25T12:52:24.482Z,9.23
2019-03-25T12:54:52.477Z,9.83
2019-03-25T12:57:20.563Z,9.27
2019-03-25T12:59:48.655Z,8.73
2019-03-25T13:02:16.630Z,7.97
2019-03-25T13:04:44.652Z,9.43
2019-03-25T13:07:12.987Z,9.20
2019-03-25T13:09:41.429Z,8.63
2019-03-25T13:12:09.516Z,8.83
2019-03-25T13:14:37.613Z,9.07
2019-03-25T13:17:05.766Z,8.23
2019-03-25T13:19:33.852Z,8.67
2019-03-25T13:22:02.114Z,8.60
2019-03-25T13:24:30.341Z,7.67
2019-03-25T13:26:58.337Z,8.27
2019-03-25T13:29:26.487Z,8.23
2019-03-25T13:31:54.681Z,8.40
2019-03-25T13:34:22.692Z,8.30
2019-03-25T13:36:50.780Z,8.13
2019-03-25T13:39:18.847Z,8.57
2019-03-25T13:41:46.852Z,8.27
2019-03-25T13:44:14.878Z,8.70
2019-03-25T13:46:43.277Z,9.13
2019-03-25T13:49:11.566Z,9.77
2019-03-25T13:51:39.760Z,9.17
2019-03-25T13:54:07.943Z,8.10
2019-03-25T13:56:35.918Z,9.00
2019-03-25T13:59:04.072Z,8.63
2019-03-25T14:01:32.078Z,8.37
2019-03-25T14:04:00.111Z,7.73
2019-03-25T14:06:28.171Z,7.83
2019-03-25T14:08:56.272Z,9.37
2019-03-25T14:11:24.370Z,7.90
2019-03-25T14:13:52.474Z,10.47
2019-03-25T14:16:20.506Z,7.87
2019-03-25T14:18:48.541Z,8.43
2019-03-25T14:21:16.649Z,7.97
2019-03-25T14:23:44.667Z,11.10
2019-03-25T14:26:12.660Z,9.63
2019-03-25T14:28:40.759Z,9.43
2019-03-25T14:31:08.840Z,8.27
2019-03-25T14:33:36.834Z,8.70
2019-03-25T14:36:05.035Z,8.00
2019-03-25T14:38:33.204Z,7.03
2019-03-25T14:41:01.284Z,8.03
2019-03-25T14:43:29.329Z,8.13
2019-03-25T14:45:57.400Z,7.13
2019-03-25T14:48:25.408Z,8.07
2019-03-25T14:50:53.552Z,7.70
2019-03-25T14:53:21.623Z,8.40
2019-03-25T14:55:49.682Z,9.33
2019-03-25T14:58:17.754Z,7.63
2019-03-25T15:00:45.830Z,7.83
2019-03-25T15:03:13.842Z,8.20
2019-03-25T15:05:41.879Z,8.40
2019-03-25T15:08:09.943Z,7.63
2019-03-25T15:10:37.946Z,7.87
2019-03-25T15:13:06.051Z,7.47
2019-03-25T15:15:34.145Z,8.03
2019-03-25T15:18:02.366Z,7.87
2019-03-25T15:20:30.445Z,6.37
2019-03-25T15:22:58.495Z,6.10
2019-03-25T15:25:27.114Z,5.90
2019-03-25T15:27:55.188Z,6.13
2019-03-25T15:30:23.234Z,6.67
2019-03-25T15:32:51.266Z,6.40
2019-03-25T15:35:19.358Z,6.23
2019-03-25T15:37:47.426Z,6.53
2019-03-25T15:40:16.050Z,6.40
2019-03-25T15:42:44.113Z,5.77
2019-03-25T15:45:12.300Z,6.17
2019-03-25T15:47:43.786Z,6.30
2019-03-25T15:50:11.413Z,6.33
2019-03-25T15:52:39.597Z,5.90
2019-03-25T15:55:09.089Z,7.20
2019-03-25T15:57:39.556Z,7.40
2019-03-25T16:00:12.372Z,8.07
2019-03-25T16:02:40.638Z,8.20
2019-03-25T16:05:08.811Z,8.30
2019-03-25T16:07:36.848Z,7.37
2019-03-25T16:10:05.618Z,7.30
2019-03-25T16:12:33.717Z,8.57
2019-03-25T16:15:01.931Z,7.27
2019-03-25T16:17:29.987Z,8.70
2019-03-25T16:19:58.039Z,8.00
2019-03-25T16:22:26.092Z,9.33
2019-03-25T16:24:54.161Z,11.33
2019-03-25T16:27:22.274Z,12.17
2019-03-25T16:29:50.330Z,12.97
2019-03-25T16:32:18.401Z,11.53
2019-03-25T16:34:46.748Z,11.33
2019-03-25T16:37:14.716Z,12.60
2019-03-25T16:39:42.719Z,11.20
2019-03-25T16:42:16.896Z,7.87
2019-03-25T16:44:45.034Z,11.37
2019-03-25T16:47:14.475Z,8.73
2019-03-25T16:49:42.528Z,9.37
2019-03-25T16:52:10.559Z,9.23
2019-03-25T16:54:40.525Z,10.20
2019-03-25T16:57:08.612Z,9.73
2019-03-25T16:59:36.733Z,9.43
2019-03-25T17:02:04.831Z,10.07
2019-03-25T17:04:32.904Z,10.57
2019-03-25T17:07:00.900Z,10.40
2019-03-25T17:09:28.906Z,11.10
2019-03-25T17:11:57.035Z,11.07
2019-03-25T17:14:25.590Z,15.27
2019-03-25T17:16:53.634Z,18.13
2019-03-25T17:19:21.658Z,16.10
2019-03-25T17:21:57.615Z,14.40
2019-03-25T17:24:19.615Z,13.30
2019-03-25T17:26:47.720Z,12.70
2019-03-25T17:29:15.756Z,11.53
2019-03-25T17:31:43.827Z,11.73
2019-03-25T17:34:11.900Z,11.73
2019-03-25T17:36:40.031Z,12.43
2019-03-25T17:39:09.357Z,11.97
2019-03-25T17:41:37.464Z,12.83
2019-03-25T17:44:05.486Z,13.43
2019-03-25T17:46:33.636Z,13.30
2019-03-25T17:49:01.668Z,13.70
2019-03-25T17:51:29.680Z,14.00
2019-03-25T17:53:57.866Z,14.03
2019-03-25T17:56:26.025Z,15.53
2019-03-25T17:58:54.499Z,32.30
2019-03-25T18:01:32.550Z,46.37
2019-03-25T18:03:59.599Z,39.23
2019-03-25T18:06:27.734Z,41.17
2019-03-25T18:08:56.706Z,46.63
2019-03-25T18:11:24.803Z,35.73
2019-03-25T18:13:53.828Z,40.83
2019-03-25T18:16:22.255Z,38.77
2019-03-25T18:18:50.404Z,31.90
2019-03-25T18:21:18.605Z,35.47
2019-03-25T18:23:46.641Z,26.47
2019-03-25T18:26:15.220Z,26.23
2019-03-25T18:28:43.391Z,30.23
2019-03-25T18:31:11.433Z,28.60
2019-03-25T18:33:39.455Z,19.63
2019-03-25T18:36:07.564Z,16.37
2019-03-25T18:38:35.635Z,14.93
2019-03-25T18:41:03.669Z,14.23
2019-03-25T18:43:31.722Z,13.20
2019-03-25T18:45:59.856Z,14.50
2019-03-25T18:48:28.584Z,13.13
2019-03-25T18:50:56.589Z,13.67
2019-03-25T18:53:24.927Z,12.73
2019-03-25T18:55:53.383Z,15.60
2019-03-25T18:58:21.581Z,14.73
2019-03-25T19:00:49.657Z,17.17
2019-03-25T19:03:18.559Z,18.07
2019-03-25T19:05:47.123Z,20.40
2019-03-25T19:08:15.357Z,22.00
2019-03-25T19:10:45.335Z,23.00
2019-03-25T19:13:13.334Z,28.83
2019-03-25T19:15:41.556Z,32.67
2019-03-25T19:18:10.034Z,33.60
2019-03-25T19:20:38.314Z,37.03
2019-03-25T19:23:06.649Z,37.67
2019-03-25T19:25:37.191Z,34.67
2019-03-25T19:28:05.630Z,30.23
2019-03-25T19:30:34.032Z,30.77
2019-03-25T19:33:02.093Z,39.90
2019-03-25T19:35:30.405Z,34.77
2019-03-25T19:37:58.580Z,28.80
2019-03-25T19:40:26.811Z,27.17
2019-03-25T19:42:54.959Z,28.30
2019-03-25T19:45:23.459Z,21.37
2019-03-25T19:47:52.354Z,19.73
2019-03-25T19:50:20.877Z,16.17
2019-03-25T19:52:49.240Z,14.80
2019-03-25T19:55:17.235Z,14.53
2019-03-25T19:57:45.433Z,13.90
2019-03-25T20:00:13.915Z,14.20
2019-03-25T20:02:41.987Z,10.00
2019-03-25T20:05:10.258Z,9.93
2019-03-25T20:07:38.827Z,11.50
2019-03-25T20:10:09.260Z,11.27
2019-03-25T20:12:38.426Z,10.50
2019-03-25T20:15:07.070Z,10.87
2019-03-25T20:17:35.379Z,11.30
2019-03-25T20:20:04.209Z,12.07
2019-03-25T20:22:32.496Z,12.23
2019-03-25T20:25:01.227Z,13.97
2019-03-25T20:27:29.412Z,12.90
2019-03-25T20:29:58.248Z,14.60
2019-03-25T20:32:31.633Z,22.93
2019-03-25T20:34:56.454Z,18.10
2019-03-25T20:37:24.896Z,19.70
2019-03-25T20:39:52.887Z,19.77
2019-03-25T20:42:21.022Z,15.70
2019-03-25T20:44:49.074Z,18.00
2019-03-25T20:47:17.376Z,16.13
2019-03-25T20:49:45.478Z,16.00
2019-03-25T20:52:13.530Z,15.60
2019-03-25T20:54:41.951Z,14.67
2019-03-25T20:57:10.014Z,13.83
2019-03-25T20:59:39.740Z,14.57
2019-03-25T21:02:07.943Z,11.60
2019-03-25T21:04:36.148Z,12.93
2019-03-25T21:07:05.210Z,13.87
2019-03-25T21:09:33.295Z,14.83
2019-03-25T21:12:01.392Z,12.20
2019-03-25T21:14:29.721Z,11.63
2019-03-25T21:16:57.980Z,11.30
2019-03-25T21:19:26.139Z,11.63
2019-03-25T21:21:54.288Z,10.67
2019-03-25T21:24:22.370Z,11.87
2019-03-25T21:26:50.891Z,15.30
2019-03-25T21:29:18.925Z,13.93
2019-03-25T21:31:47.013Z,15.27
2019-03-25T21:34:15.016Z,13.63
2019-03-25T21:36:43.132Z,15.60
2019-03-25T21:39:11.279Z,15.23
2019-03-25T21:41:39.404Z,13.90
2019-03-25T21:44:07.732Z,12.37
2019-03-25T21:46:35.798Z,11.07
2019-03-25T21:49:04.040Z,10.23
2019-03-25T21:51:32.239Z,10.37
2019-03-25T21:54:00.295Z,8.23
2019-03-25T21:56:28.551Z,9.40
2019-03-25T21:58:56.588Z,8.90
2019-03-25T22:01:24.957Z,7.70
2019-03-25T22:03:53.195Z,8.80
2019-03-25T22:06:21.385Z,9.10
2019-03-25T22:08:49.509Z,8.97
2019-03-25T22:11:17.533Z,8.47
2019-03-25T22:13:45.515Z,8.90
2019-03-25T22:16:13.703Z,7.60
2019-03-25T22:18:41.912Z,8.60
2019-03-25T22:21:09.940Z,7.63
2019-03-25T22:23:38.014Z,7.77
2019-03-25T22:26:05.938Z,7.07
2019-03-25T22:28:33.946Z,7.47
2019-03-25T22:31:01.976Z,7.53
2019-03-25T22:33:30.038Z,6.80
2019-03-25T22:35:57.978Z,7.20
2019-03-25T22:38:26.014Z,5.93
2019-03-25T22:40:54.016Z,6.73
2019-03-25T22:43:21.966Z,6.83
2019-03-25T22:45:49.977Z,6.57
2019-03-25T22:48:18.082Z,6.67
2019-03-25T22:50:46.178Z,9.50
2019-03-25T22:53:14.125Z,9.53
2019-03-25T22:55:42.172Z,8.97
2019-03-25T22:58:10.193Z,8.37
2019-03-25T23:00:43.875Z,8.90
2019-03-25T23:03:12.047Z,9.97
2019-03-25T23:05:40.172Z,9.50
2019-03-25T23:08:08.173Z,9.57
2019-03-25T23:10:36.267Z,9.60
2019-03-25T23:13:04.333Z,8.40
2019-03-25T23:15:32.464Z,7.53
2019-03-25T23:18:00.547Z,8.60
2019-03-25T23:20:28.771Z,9.37
2019-03-25T23:22:56.871Z,8.53
2019-03-25T23:25:24.956Z,8.73
2019-03-25T23:27:55.497Z,9.27
2019-03-25T23:30:23.728Z,9.00
2019-03-25T23:32:51.707Z,7.40
2019-03-25T23:35:19.754Z,8.20
2019-03-25T23:37:48.155Z,7.10
2019-03-25T23:40:16.220Z,8.27
2019-03-25T23:42:44.359Z,8.87
2019-03-25T23:45:12.739Z,7.73
2019-03-25T23:47:40.760Z,8.20
2019-03-25T23:50:09.011Z,7.90
2019-03-25T23:52:37.049Z,8.00
2019-03-25T23:55:06.058Z,8.50
2019-03-25T23:57:34.135Z,8.87
